createdAt,value
2022-08-16T00:01:21.825Z,12.43
2022-08-16T00:03:54.384Z,12.32
2022-08-16T00:06:22.834Z,11.82
2022-08-16T00:08:52.448Z,11.45
2022-08-16T00:11:20.907Z,13.15
2022-08-16T00:13:53.041Z,13.05
2022-08-16T00:17:05.506Z,13.32
2022-08-16T00:19:13.438Z,12.98
2022-08-16T00:21:42.244Z,12.10
2022-08-16T00:24:12.255Z,11.75
2022-08-16T00:26:44.543Z,11.90
2022-08-16T00:29:15.600Z,12.27
2022-08-16T00:31:47.061Z,12.40
2022-08-16T00:34:41.401Z,12.00
2022-08-16T00:37:18.483Z,11.50
2022-08-16T00:39:47.760Z,10.57
2022-08-16T00:42:30.345Z,11.10
2022-08-16T00:45:08.501Z,10.57
2022-08-16T00:47:38.510Z,10.70
2022-08-16T00:50:11.841Z,10.95
2022-08-16T00:52:45.821Z,10.70
2022-08-16T00:55:20.414Z,11.40
2022-08-16T00:58:00.052Z,11.80
2022-08-16T01:00:30.415Z,11.88
2022-08-16T01:03:00.847Z,12.45
2022-08-16T01:05:30.473Z,13.15
2022-08-16T01:08:01.141Z,13.18
2022-08-16T01:10:33.582Z,12.40
2022-08-16T01:13:05.580Z,12.85
2022-08-16T01:15:35.137Z,12.35
2022-08-16T01:18:04.425Z,13.13
2022-08-16T01:20:36.765Z,12.88
2022-08-16T01:23:09.164Z,12.98
2022-08-16T01:25:41.940Z,11.98
2022-08-16T01:28:19.972Z,11.88
2022-08-16T01:30:51.470Z,12.07
2022-08-16T01:33:20.571Z,12.10
2022-08-16T01:35:54.319Z,12.60
2022-08-16T01:38:28.413Z,11.55
2022-08-16T01:41:02.261Z,12.25
2022-08-16T01:43:31.604Z,13.30
2022-08-16T01:46:17.464Z,12.45
2022-08-16T01:48:48.943Z,12.55
2022-08-16T01:51:18.071Z,12.20
2022-08-16T01:53:55.524Z,12.30
2022-08-16T01:56:27.062Z,12.13
2022-08-16T01:58:57.330Z,11.65
2022-08-16T02:01:26.177Z,12.80
2022-08-16T02:03:58.621Z,12.05
2022-08-16T02:06:38.834Z,11.77
2022-08-16T02:09:11.989Z,12.10
2022-08-16T02:11:48.623Z,11.77
2022-08-16T02:14:22.417Z,11.10
2022-08-16T02:16:54.747Z,11.70
2022-08-16T02:19:24.400Z,11.07
2022-08-16T02:22:34.371Z,10.20
2022-08-16T02:25:02.465Z,10.43
2022-08-16T02:27:31.900Z,11.03
2022-08-16T02:30:05.308Z,11.25
2022-08-16T02:32:49.148Z,10.93
2022-08-16T02:35:23.120Z,11.45
2022-08-16T02:37:53.016Z,11.70
2022-08-16T02:40:22.335Z,11.77
2022-08-16T02:42:52.434Z,12.32
2022-08-16T02:45:24.649Z,11.40
2022-08-16T02:48:00.693Z,12.60
2022-08-16T02:50:53.706Z,12.03
2022-08-16T02:53:30.207Z,12.73
2022-08-16T02:55:57.922Z,11.85
2022-08-16T02:58:29.085Z,12.82
2022-08-16T03:00:57.657Z,12.27
2022-08-16T03:03:26.153Z,11.65
2022-08-16T03:05:54.248Z,13.30
2022-08-16T03:08:50.533Z,11.65
2022-08-16T03:11:20.471Z,12.57
2022-08-16T03:13:56.472Z,12.15
2022-08-16T03:16:38.397Z,12.82
2022-08-16T03:19:10.266Z,12.18
2022-08-16T03:21:38.853Z,11.90
2022-08-16T03:24:29.236Z,12.17
2022-08-16T03:26:58.077Z,11.43
2022-08-16T03:29:30.113Z,12.13
2022-08-16T03:31:59.027Z,11.05
2022-08-16T03:34:27.630Z,11.40
2022-08-16T03:36:55.770Z,10.75
2022-08-16T03:39:23.617Z,11.15
2022-08-16T03:41:59.767Z,11.13
2022-08-16T03:44:43.349Z,11.00
2022-08-16T03:47:18.579Z,10.57
2022-08-16T03:49:51.984Z,10.68
2022-08-16T03:52:20.475Z,10.40
2022-08-16T03:54:57.469Z,10.73
2022-08-16T03:57:31.859Z,11.27
2022-08-16T04:00:35.401Z,10.97
2022-08-16T04:03:07.504Z,11.00
2022-08-16T04:05:36.923Z,10.68
2022-08-16T04:08:23.339Z,11.15
2022-08-16T04:10:53.243Z,11.02
2022-08-16T04:14:00.681Z,11.43
2022-08-16T04:16:27.869Z,10.82
2022-08-16T04:19:01.986Z,11.15
2022-08-16T04:21:30.807Z,11.10
2022-08-16T04:23:59.981Z,11.68
2022-08-16T04:26:30.733Z,10.20
2022-08-16T04:29:16.892Z,11.43
2022-08-16T04:31:56.354Z,11.68
2022-08-16T04:34:27.329Z,11.75
2022-08-16T04:36:55.219Z,10.88
2022-08-16T04:39:25.171Z,10.95
2022-08-16T04:42:11.059Z,11.38
2022-08-16T04:44:53.913Z,10.50
2022-08-16T04:47:25.467Z,10.98
2022-08-16T04:49:59.949Z,10.30
2022-08-16T04:52:34.829Z,11.10
2022-08-16T04:55:06.059Z,10.93
2022-08-16T04:57:33.873Z,10.23
2022-08-16T05:00:31.079Z,10.80
2022-08-16T05:02:55.713Z,10.40
2022-08-16T05:05:24.284Z,10.75
2022-08-16T05:07:59.914Z,10.65
2022-08-16T05:10:29.446Z,10.50
2022-08-16T05:12:57.767Z,11.25
2022-08-16T05:15:25.801Z,11.35
2022-08-16T05:17:58.897Z,10.43
2022-08-16T05:20:39.494Z,9.95
2022-08-16T05:23:15.094Z,10.00
2022-08-16T05:25:48.710Z,11.15
2022-08-16T05:28:17.347Z,11.23
2022-08-16T05:30:46.148Z,12.23
2022-08-16T05:33:21.180Z,11.60
2022-08-16T05:35:54.810Z,12.18
2022-08-16T05:38:32.828Z,12.50
2022-08-16T05:41:09.319Z,12.10
2022-08-16T05:43:43.714Z,12.40
2022-08-16T05:46:30.331Z,11.98
2022-08-16T05:49:09.001Z,12.55
2022-08-16T05:51:40.301Z,11.80
2022-08-16T05:54:11.307Z,12.93
2022-08-16T05:56:39.725Z,13.50
2022-08-16T05:59:08.420Z,11.98
2022-08-16T06:01:38.243Z,12.93
2022-08-16T06:04:12.961Z,12.68
2022-08-16T06:06:57.028Z,12.57
2022-08-16T06:09:25.807Z,12.18
2022-08-16T06:12:12.727Z,13.20
2022-08-16T06:14:58.435Z,11.70
2022-08-16T06:17:43.935Z,12.95
2022-08-16T06:20:23.139Z,13.73
2022-08-16T06:22:57.916Z,12.10
2022-08-16T06:25:36.697Z,13.50
2022-08-16T06:28:08.615Z,13.80
2022-08-16T06:30:43.760Z,13.82
2022-08-16T06:33:13.061Z,12.40
2022-08-16T06:35:49.273Z,13.95
2022-08-16T06:38:34.026Z,13.27
2022-08-16T06:41:04.081Z,12.82
2022-08-16T06:43:32.358Z,14.20
2022-08-16T06:46:00.603Z,13.38
2022-08-16T06:48:32.817Z,12.35
2022-08-16T06:51:03.863Z,13.45
2022-08-16T06:53:33.753Z,13.65
2022-08-16T06:56:06.046Z,12.95
2022-08-16T06:58:41.530Z,13.50
2022-08-16T07:01:09.916Z,12.93
2022-08-16T07:03:55.028Z,13.80
2022-08-16T07:06:26.812Z,12.83
2022-08-16T07:08:55.337Z,12.45
2022-08-16T07:11:45.542Z,13.60
2022-08-16T07:14:24.198Z,13.95
2022-08-16T07:16:58.297Z,14.32
2022-08-16T07:20:01.377Z,14.93
2022-08-16T07:22:39.190Z,14.50
2022-08-16T07:25:05.311Z,15.05
2022-08-16T07:27:33.640Z,14.07
2022-08-16T07:30:01.830Z,13.90
2022-08-16T07:32:31.646Z,14.52
2022-08-16T07:34:59.508Z,13.50
2022-08-16T07:37:28.670Z,13.98
2022-08-16T07:39:57.260Z,13.88
2022-08-16T07:42:34.772Z,15.50
2022-08-16T07:45:03.413Z,14.10
2022-08-16T07:47:35.459Z,14.52
2022-08-16T07:50:07.810Z,12.93
2022-08-16T07:52:42.470Z,12.75
2022-08-16T07:55:11.634Z,14.18
2022-08-16T07:57:55.891Z,12.80
2022-08-16T08:00:27.169Z,12.45
2022-08-16T08:03:00.334Z,13.40
2022-08-16T08:05:35.792Z,12.57
2022-08-16T08:08:12.011Z,13.05
2022-08-16T08:10:53.872Z,12.02
2022-08-16T08:13:42.010Z,13.32
2022-08-16T08:16:18.325Z,12.77
2022-08-16T08:18:50.265Z,12.02
2022-08-16T08:21:27.339Z,12.00
2022-08-16T08:23:57.596Z,11.05
2022-08-16T08:26:26.049Z,11.00
2022-08-16T08:29:00.951Z,11.65
2022-08-16T08:31:29.066Z,11.45
2022-08-16T08:33:58.463Z,11.23
2022-08-16T08:36:33.476Z,11.00
2022-08-16T08:40:45.951Z,10.75
2022-08-16T08:43:18.391Z,10.63
2022-08-16T08:45:48.542Z,10.00
2022-08-16T08:48:33.329Z,9.98
2022-08-16T08:51:02.876Z,9.82
2022-08-16T08:53:30.859Z,9.68
2022-08-16T08:56:00.192Z,10.60
2022-08-16T08:58:34.223Z,9.88
2022-08-16T09:01:02.981Z,8.57
2022-08-16T09:03:32.622Z,8.30
2022-08-16T09:06:00.573Z,8.95
2022-08-16T09:08:28.445Z,8.52
2022-08-16T09:11:02.410Z,8.63
2022-08-16T09:13:33.956Z,8.73
2022-08-16T09:16:02.933Z,8.73
2022-08-16T09:18:35.970Z,9.38
2022-08-16T09:21:09.548Z,7.78
2022-08-16T09:23:37.673Z,7.78
2022-08-16T09:26:45.684Z,7.93
2022-08-16T09:29:14.773Z,7.78
2022-08-16T09:31:42.707Z,7.55
2022-08-16T09:34:11.155Z,8.55
2022-08-16T09:36:46.211Z,8.93
2022-08-16T09:39:16.047Z,7.38
2022-08-16T09:41:53.149Z,7.82
2022-08-16T09:45:11.227Z,8.00
2022-08-16T09:47:11.943Z,7.43
2022-08-16T09:49:41.183Z,7.22
2022-08-16T09:52:10.149Z,7.20
2022-08-16T09:54:38.527Z,7.75
2022-08-16T09:57:12.438Z,7.20
2022-08-16T09:59:42.111Z,8.20
2022-08-16T10:02:26.176Z,8.43
2022-08-16T10:04:55.867Z,8.75
2022-08-16T10:07:23.836Z,8.15
2022-08-16T10:09:55.608Z,7.78
2022-08-16T10:12:43.426Z,7.50
2022-08-16T10:15:15.582Z,6.05
2022-08-16T10:17:45.700Z,5.80
2022-08-16T10:20:30.883Z,6.90
2022-08-16T10:23:05.138Z,6.60
2022-08-16T10:27:19.575Z,6.03
2022-08-16T10:28:32.060Z,6.27
2022-08-16T10:31:03.674Z,6.50
2022-08-16T10:33:34.026Z,6.47
2022-08-16T10:36:04.906Z,5.70
2022-08-16T10:38:36.841Z,5.97
2022-08-16T10:41:05.613Z,5.40
2022-08-16T10:43:35.597Z,4.80
2022-08-16T10:46:39.209Z,5.05
2022-08-16T10:48:53.620Z,4.90
2022-08-16T10:51:21.335Z,3.95
2022-08-16T10:54:02.925Z,4.40
2022-08-16T10:56:55.891Z,4.03
2022-08-16T10:59:45.017Z,3.95
2022-08-16T11:02:59.078Z,4.00
2022-08-16T11:05:08.563Z,4.03
2022-08-16T11:07:45.162Z,3.88
2022-08-16T11:16:25.442Z,3.08
2022-08-16T11:19:05.868Z,2.90
2022-08-16T11:22:39.620Z,2.95
2022-08-16T11:24:42.571Z,3.10
2022-08-16T11:27:23.253Z,2.90
2022-08-16T11:29:53.393Z,2.57
2022-08-16T11:32:32.379Z,2.90
2022-08-16T11:35:10.200Z,3.10
2022-08-16T11:40:32.270Z,3.30
2022-08-16T11:43:00.253Z,3.10
2022-08-16T11:45:28.119Z,2.90
2022-08-16T11:48:01.438Z,2.93
2022-08-16T11:50:33.210Z,3.05
2022-08-16T11:53:03.422Z,2.80
2022-08-16T11:55:32.620Z,2.45
2022-08-16T11:58:01.215Z,2.60
2022-08-16T12:00:33.518Z,2.45
2022-08-16T12:03:19.232Z,2.60
2022-08-16T12:05:52.109Z,3.65
2022-08-16T12:08:26.010Z,3.03
2022-08-16T12:10:55.293Z,3.20
2022-08-16T12:13:27.433Z,3.00
2022-08-16T12:15:55.921Z,3.00
2022-08-16T12:18:24.435Z,2.88
2022-08-16T12:20:55.333Z,3.03
2022-08-16T12:23:25.993Z,3.40
2022-08-16T12:25:54.126Z,3.10
2022-08-16T12:28:25.365Z,3.30
2022-08-16T12:31:05.561Z,3.05
2022-08-16T12:33:44.676Z,2.47
2022-08-16T12:36:14.550Z,2.80
2022-08-16T12:38:48.275Z,2.20
2022-08-16T12:41:24.647Z,2.20
2022-08-16T12:43:57.170Z,2.50
2022-08-16T12:46:30.998Z,2.47
2022-08-16T12:48:58.687Z,2.60
2022-08-16T12:51:57.566Z,3.35
2022-08-16T12:54:19.804Z,2.72
2022-08-16T12:56:48.225Z,2.88
2022-08-16T12:59:20.462Z,2.40
2022-08-16T13:01:50.311Z,2.60
2022-08-16T13:04:20.333Z,2.60
2022-08-16T13:06:52.540Z,2.40
2022-08-16T13:09:26.130Z,2.25
2022-08-16T13:12:04.525Z,2.55
2022-08-16T13:14:35.419Z,2.30
2022-08-16T13:17:06.487Z,2.40
2022-08-16T13:20:05.553Z,2.58
2022-08-16T13:22:24.756Z,2.20
2022-08-16T13:24:53.660Z,2.50
2022-08-16T13:28:03.274Z,2.22
2022-08-16T13:30:36.079Z,2.55
2022-08-16T13:32:59.283Z,2.70
2022-08-16T13:35:34.621Z,2.88
2022-08-16T13:38:04.158Z,2.63
2022-08-16T13:40:34.286Z,2.42
2022-08-16T13:43:02.834Z,2.33
2022-08-16T13:45:36.152Z,2.60
2022-08-16T13:48:05.528Z,2.90
2022-08-16T13:50:51.757Z,2.30
2022-08-16T13:53:24.508Z,2.55
2022-08-16T13:55:58.597Z,2.53
2022-08-16T13:58:35.772Z,2.70
2022-08-16T14:01:09.441Z,2.47
2022-08-16T14:03:38.026Z,2.10
2022-08-16T14:06:10.883Z,2.65
2022-08-16T14:08:42.165Z,2.70
2022-08-16T14:11:11.953Z,2.70
2022-08-16T14:13:40.964Z,3.15
2022-08-16T14:16:23.424Z,2.80
2022-08-16T14:18:52.736Z,3.45
2022-08-16T14:21:21.864Z,3.38
2022-08-16T14:23:53.045Z,3.03
2022-08-16T14:26:21.451Z,2.83
2022-08-16T14:28:50.994Z,3.57
2022-08-16T14:31:19.981Z,3.37
2022-08-16T14:33:47.664Z,3.30
2022-08-16T14:36:18.830Z,3.25
2022-08-16T14:38:54.447Z,3.15
2022-08-16T14:41:22.271Z,3.17
2022-08-16T14:43:50.738Z,3.28
2022-08-16T14:46:18.711Z,3.55
2022-08-16T14:48:46.415Z,3.50
2022-08-16T14:51:15.784Z,2.88
2022-08-16T14:53:45.332Z,3.15
2022-08-16T14:56:17.412Z,3.50
2022-08-16T14:59:02.514Z,4.10
2022-08-16T15:01:52.130Z,3.60
2022-08-16T15:04:39.266Z,3.70
2022-08-16T15:07:06.945Z,3.40
2022-08-16T15:09:43.863Z,3.63
2022-08-16T15:12:33.564Z,4.80
2022-08-16T15:15:12.795Z,3.10
2022-08-16T15:17:54.500Z,5.32
2022-08-16T15:20:26.123Z,3.83
2022-08-16T15:22:54.984Z,3.90
2022-08-16T15:25:27.621Z,4.00
2022-08-16T15:28:00.794Z,3.80
2022-08-16T15:30:59.878Z,4.28
2022-08-16T15:33:23.184Z,3.22
2022-08-16T15:35:55.563Z,3.33
2022-08-16T15:38:55.240Z,3.97
2022-08-16T15:41:32.442Z,4.20
2022-08-16T15:44:05.521Z,4.50
2022-08-16T15:46:56.482Z,4.00
2022-08-16T15:49:34.809Z,4.30
2022-08-16T15:52:16.323Z,4.47
2022-08-16T15:54:52.604Z,4.15
2022-08-16T15:57:21.662Z,3.70
2022-08-16T15:59:52.941Z,4.00
2022-08-16T16:02:29.641Z,3.50
2022-08-16T16:05:00.630Z,4.00
2022-08-16T16:07:30.318Z,4.60
2022-08-16T16:09:58.815Z,4.30
2022-08-16T16:12:51.429Z,4.18
2022-08-16T16:15:16.735Z,3.80
2022-08-16T16:19:05.098Z,4.30
2022-08-16T16:21:35.246Z,4.03
2022-08-16T16:24:03.314Z,4.13
2022-08-16T16:26:51.327Z,4.57
2022-08-16T16:29:19.309Z,4.03
2022-08-16T16:31:53.064Z,3.72
2022-08-16T16:34:32.457Z,4.38
2022-08-16T16:37:02.945Z,4.10
2022-08-16T16:39:32.691Z,4.40
2022-08-16T16:42:00.562Z,3.80
2022-08-16T16:44:33.648Z,4.30
2022-08-16T16:47:03.871Z,4.20
2022-08-16T16:49:33.809Z,4.00
2022-08-16T16:52:07.411Z,3.83
2022-08-16T16:54:35.578Z,3.53
2022-08-16T16:57:03.356Z,4.10
2022-08-16T16:59:30.723Z,5.00
2022-08-16T17:02:39.006Z,5.20
2022-08-16T17:04:49.802Z,6.30
2022-08-16T17:07:17.858Z,6.00
2022-08-16T17:09:51.751Z,6.10
2022-08-16T17:12:24.556Z,6.07
2022-08-16T17:14:53.316Z,6.18
2022-08-16T17:17:20.999Z,5.97
2022-08-16T17:19:50.496Z,5.57
2022-08-16T17:22:20.203Z,5.80
2022-08-16T17:24:50.319Z,5.83
2022-08-16T17:27:32.057Z,5.70
2022-08-16T17:30:01.306Z,5.85
2022-08-16T17:32:33.550Z,6.25
2022-08-16T17:35:21.407Z,6.65
2022-08-16T17:37:52.161Z,6.13
2022-08-16T17:40:25.338Z,6.27
2022-08-16T17:43:05.513Z,6.75
2022-08-16T17:45:33.247Z,6.70
2022-08-16T17:48:01.203Z,7.80
2022-08-16T17:50:30.429Z,9.50
2022-08-16T17:52:58.428Z,8.85
2022-08-16T17:55:28.911Z,9.20
2022-08-16T17:57:56.642Z,9.00
2022-08-16T18:00:25.209Z,10.27
2022-08-16T18:02:53.361Z,9.95
2022-08-16T18:05:21.310Z,9.05
2022-08-16T18:07:50.378Z,9.23
2022-08-16T18:10:31.267Z,9.57
2022-08-16T18:13:02.311Z,10.40
2022-08-16T18:15:30.984Z,10.88
2022-08-16T18:17:58.743Z,10.40
2022-08-16T18:20:44.087Z,9.02
2022-08-16T18:23:15.537Z,9.30
2022-08-16T18:25:47.178Z,9.40
2022-08-16T18:28:15.166Z,9.23
2022-08-16T18:30:45.799Z,10.00
2022-08-16T18:33:18.045Z,9.05
2022-08-16T18:35:46.035Z,8.53
2022-08-16T18:38:15.155Z,9.98
2022-08-16T18:40:43.558Z,9.25
2022-08-16T18:43:14.035Z,10.43
2022-08-16T18:45:43.388Z,8.48
2022-08-16T18:48:12.398Z,8.60
2022-08-16T18:51:04.481Z,8.60
2022-08-16T18:53:30.984Z,9.82
2022-08-16T18:56:00.007Z,9.02
2022-08-16T18:58:28.496Z,9.27
2022-08-16T19:00:57.414Z,8.93
2022-08-16T19:03:27.043Z,9.00
2022-08-16T19:05:57.903Z,9.10
2022-08-16T19:08:26.380Z,8.30
2022-08-16T19:10:55.743Z,8.60
2022-08-16T19:13:25.168Z,8.15
2022-08-16T19:15:54.373Z,8.90
2022-08-16T19:18:22.883Z,9.15
2022-08-16T19:20:51.076Z,9.23
2022-08-16T19:23:25.978Z,8.65
2022-08-16T19:25:58.397Z,8.52
2022-08-16T19:28:50.503Z,8.20
2022-08-16T19:31:22.825Z,7.70
2022-08-16T19:33:54.842Z,7.20
2022-08-16T19:36:31.805Z,8.70
2022-08-16T19:39:06.940Z,8.17
2022-08-16T19:41:39.639Z,7.43
2022-08-16T19:44:07.650Z,8.20
2022-08-16T19:46:35.723Z,7.88
2022-08-16T19:49:04.220Z,9.15
2022-08-16T19:51:31.921Z,8.70
2022-08-16T19:53:59.798Z,9.25
2022-08-16T19:56:27.594Z,9.77
2022-08-16T19:59:18.218Z,9.68
2022-08-16T20:01:45.072Z,9.32
2022-08-16T20:04:13.446Z,9.23
2022-08-16T20:06:41.293Z,9.35
2022-08-16T20:09:10.460Z,10.05
2022-08-16T20:11:42.358Z,9.95
2022-08-16T20:14:11.505Z,9.82
2022-08-16T20:16:47.121Z,9.57
2022-08-16T20:19:14.904Z,10.70
2022-08-16T20:21:42.633Z,9.40
2022-08-16T20:24:32.959Z,10.30
2022-08-16T20:26:58.365Z,10.00
2022-08-16T20:29:27.429Z,9.75
2022-08-16T20:31:55.080Z,10.05
2022-08-16T20:34:22.742Z,9.73
2022-08-16T20:36:50.472Z,10.10
2022-08-16T20:39:18.174Z,10.85
2022-08-16T20:41:46.064Z,10.93
2022-08-16T20:44:14.057Z,10.50
2022-08-16T20:46:43.244Z,10.17
2022-08-16T20:49:11.082Z,10.45
2022-08-16T20:51:49.454Z,10.98
2022-08-16T20:54:18.854Z,11.10
2022-08-16T20:56:46.589Z,11.50
2022-08-16T20:59:14.580Z,10.35
2022-08-16T21:01:46.390Z,10.43
2022-08-16T21:04:18.712Z,10.63
2022-08-16T21:06:54.113Z,10.32
2022-08-16T21:09:23.465Z,10.50
2022-08-16T21:11:53.393Z,10.82
2022-08-16T21:14:21.085Z,9.57
2022-08-16T21:16:50.368Z,10.95
2022-08-16T21:19:18.275Z,10.52
2022-08-16T21:21:45.975Z,12.07
2022-08-16T21:24:14.296Z,11.30
2022-08-16T21:26:53.869Z,11.75
2022-08-16T21:29:31.614Z,11.50
2022-08-16T21:32:12.861Z,10.18
2022-08-16T21:34:41.350Z,10.23
2022-08-16T21:37:09.179Z,11.55
2022-08-16T21:39:37.078Z,11.38
2022-08-16T21:42:09.172Z,10.80
2022-08-16T21:44:39.070Z,10.85
2022-08-16T21:47:07.038Z,11.63
2022-08-16T21:49:37.849Z,13.27
2022-08-16T21:52:06.998Z,12.95
2022-08-16T21:54:35.218Z,13.35
2022-08-16T21:57:05.520Z,12.18
2022-08-16T21:59:35.197Z,12.13
2022-08-16T22:02:02.953Z,12.63
2022-08-16T22:04:37.413Z,12.30
2022-08-16T22:07:08.039Z,11.27
2022-08-16T22:09:35.856Z,10.15
2022-08-16T22:12:03.552Z,10.63
2022-08-16T22:14:31.368Z,11.20
2022-08-16T22:16:59.131Z,10.15
2022-08-16T22:19:26.811Z,10.27
2022-08-16T22:21:55.602Z,9.57
2022-08-16T22:24:24.633Z,9.13
2022-08-16T22:26:52.343Z,9.07
2022-08-16T22:29:20.481Z,9.93
2022-08-16T22:31:48.261Z,9.07
2022-08-16T22:34:16.439Z,10.07
2022-08-16T22:36:44.207Z,10.73
2022-08-16T22:39:13.712Z,10.68
2022-08-16T22:41:45.567Z,9.63
2022-08-16T22:44:13.874Z,9.85
2022-08-16T22:46:41.565Z,10.50
2022-08-16T22:49:10.198Z,10.82
2022-08-16T22:51:38.448Z,10.70
2022-08-16T22:54:44.160Z,13.15
2022-08-16T22:56:57.334Z,12.40
2022-08-16T22:59:25.966Z,12.70
2022-08-16T23:01:53.872Z,12.60
2022-08-16T23:04:22.787Z,13.25
2022-08-16T23:06:50.504Z,12.93
2022-08-16T23:09:18.284Z,12.60
2022-08-16T23:11:46.053Z,13.93
2022-08-16T23:14:16.203Z,14.80
2022-08-16T23:16:47.382Z,13.32
2022-08-16T23:19:16.672Z,13.73
2022-08-16T23:21:47.050Z,12.68
2022-08-16T23:24:17.583Z,12.82
2022-08-16T23:26:48.822Z,14.02
2022-08-16T23:29:23.820Z,13.00
2022-08-16T23:31:53.712Z,13.55
2022-08-16T23:34:21.832Z,12.88
2022-08-16T23:36:49.685Z,13.52
2022-08-16T23:39:17.398Z,13.38
2022-08-16T23:41:45.266Z,14.85
2022-08-16T23:44:56.519Z,14.77
2022-08-16T23:47:02.105Z,14.20
2022-08-16T23:49:58.779Z,14.35
2022-08-16T23:52:18.998Z,14.00
2022-08-16T23:55:07.482Z,15.15
2022-08-16T23:57:35.150Z,13.85
